NZCH/CHC METAR and TAF weather

Enter ICAO airport designator
Station Type Date Time Source
NZCH METAR 2020/01/28 21:00 UTC NOAA

NZCH 282100Z AUTO 13003KT 9999 SCT005/// 17/17 Q1006 NOSIG


Station Type Date Time Source
NZCH Decoded METAR 2020/01/28 21:00 UTC NOAA

Christchurch, New Zealand (NZCH) 43-29S 172-33E 30M
Jan 28, 2020 - 04:00 PM EST / 2020.01.28 2100 UTC
Wind: from the SE (130 degrees) at 3 MPH (3 KT):0
Visibility: greater than 7 mile(s):0
Sky conditions: partly cloudy
Temperature: 62 F (17 C)
Dew Point: 62 F (17 C)
Relative Humidity: 100%
Pressure (altimeter): 29.71 in. Hg (1006 hPa)
ob: NZCH 282100Z AUTO 13003KT 9999 SCT005/// 17/17 Q1006 NOSIG
cycle: 21

Station Type Date Time Source
NZCH TAF 2020/01/28 18:06 UTC NOAA

TAF NZCH 281705Z 2818/2918 07008KT 9999 BKN006
TEMPO 2818/2819 BKN004
BECMG 2819/2821 SCT012
BECMG 2901/2903 34015G25KT
FM291000 20015KT 9999 -SHRA BKN012
BECMG 2912/2914 VRB02KT

Example: see airport list